Terminal Aerodrome Forecast
Issued by NWS Twin Cities, MN

Home | Current Version | Previous Version | Graphics & Text | Print | Product List | Glossary On
Versions: 1 2 3 4 5 6 7 8 9 10 11 12 13 14 15
000
FTUS43 KMPX 211120
TAFEAU
TAF
KEAU 211120Z 2112/2212 03004KT P6SM VCTS SCT035 BKN050CB
      TEMPO 2113/2117 4SM TSRA BKN025CB
     FM211700 15006KT P6SM SCT050 BKN100
     FM220000 32004KT P6SM -SHRA SCT025 BKN050 PROB30 2200/2205 4SM
      TSRA OVC025CB
     FM220500 33005KT P6SM SCT025 BKN040
     FM220800 33004KT P6SM SKC=

USA.gov is the U.S. government's official web portal to all federal, state and local government web resources and services.